BOX485 EBBR-EDDP
Flight info
| Callsign | BOX485 |
|---|---|
| Flight time | 0h 52m |
| Altitude | 35000 |
| Route | SOPOK Y863 OGLOR DCT AMASI DCT MASEK DCT FEDZA T957 ESEGU/N0480F310 T957 KOJEC KOJEC1R |
| Aircraft | B77L/H-SDE1E2E3FGHIJ2J3J4J5M1RWXY/LB1D1 |
Departure
| Time | 2026-05-07 23:15 |
|---|---|
| Airport | Brussels Airport (EBBR) |
Arrival
| Time | 2026-05-08 00:07 |
|---|---|
| Airport | Leipzig/Halle Airport (EDDP) |
| Time | Latitude | Longitude | Altitude | Speed | Heading |
|---|---|---|---|---|---|
| 2026-05-07 22:22 | 50.90334 | 4.45906 | 147 ft | 0 kts | 335° |
| 2026-05-07 22:57 | 50.90331 | 4.45908 | 147 ft | 3 kts | 335° |
| 2026-05-07 22:57 | 50.90307 | 4.45924 | 149 ft | 4 kts | 341° |
| 2026-05-07 22:57 | 50.90281 | 4.45937 | 151 ft | 4 kts | 348° |
| 2026-05-07 22:58 | 50.90254 | 4.45943 | 151 ft | 4 kts | 2° |
| 2026-05-07 22:58 | 50.90231 | 4.45934 | 152 ft | 4 kts | 46° |
| 2026-05-07 22:58 | 50.90225 | 4.45925 | 152 ft | 1 kts | 65° |
| 2026-05-07 23:02 | 50.90226 | 4.45926 | 152 ft | 2 kts | 65° |
| 2026-05-07 23:02 | 50.90247 | 4.46000 | 152 ft | 8 kts | 65° |
| 2026-05-07 23:02 | 50.90271 | 4.46082 | 152 ft | 9 kts | 65° |
| 2026-05-07 23:02 | 50.90299 | 4.46178 | 151 ft | 10 kts | 65° |
| 2026-05-07 23:03 | 50.90330 | 4.46281 | 151 ft | 10 kts | 65° |
| 2026-05-07 23:03 | 50.90355 | 4.46387 | 152 ft | 10 kts | 73° |
| 2026-05-07 23:03 | 50.90356 | 4.46526 | 153 ft | 5 kts | 104° |
| 2026-05-07 23:03 | 50.90355 | 4.46527 | 153 ft | 0 kts | 105° |
| 2026-05-07 23:05 | 50.90338 | 4.46589 | 152 ft | 16 kts | 116° |
| 2026-05-07 23:05 | 50.90272 | 4.46782 | 149 ft | 21 kts | 116° |
| 2026-05-07 23:06 | 50.90211 | 4.46988 | 149 ft | 21 kts | 115° |
| 2026-05-07 23:06 | 50.90177 | 4.47138 | 150 ft | 11 kts | 93° |
| 2026-05-07 23:06 | 50.90202 | 4.47262 | 148 ft | 13 kts | 65° |
| 2026-05-07 23:06 | 50.90244 | 4.47405 | 145 ft | 15 kts | 65° |
| 2026-05-07 23:07 | 50.90296 | 4.47591 | 143 ft | 26 kts | 65° |
| 2026-05-07 23:07 | 50.90378 | 4.47875 | 145 ft | 28 kts | 65° |
| 2026-05-07 23:07 | 50.90460 | 4.48151 | 146 ft | 28 kts | 65° |
| 2026-05-07 23:07 | 50.90538 | 4.48429 | 142 ft | 28 kts | 65° |
| 2026-05-07 23:08 | 50.90619 | 4.48709 | 129 ft | 29 kts | 65° |
| 2026-05-07 23:08 | 50.90703 | 4.48999 | 125 ft | 29 kts | 66° |
| 2026-05-07 23:08 | 50.90787 | 4.49290 | 127 ft | 29 kts | 65° |
| 2026-05-07 23:08 | 50.90857 | 4.49536 | 129 ft | 14 kts | 72° |
| 2026-05-07 23:09 | 50.90818 | 4.49678 | 130 ft | 15 kts | 130° |
| 2026-05-07 23:09 | 50.90719 | 4.49702 | 138 ft | 20 kts | 194° |
| 2026-05-07 23:09 | 50.90579 | 4.49644 | 138 ft | 21 kts | 195° |
| 2026-05-07 23:09 | 50.90439 | 4.49585 | 140 ft | 21 kts | 195° |
| 2026-05-07 23:10 | 50.90298 | 4.49528 | 141 ft | 21 kts | 194° |
| 2026-05-07 23:10 | 50.90158 | 4.49471 | 142 ft | 21 kts | 194° |
| 2026-05-07 23:10 | 50.90017 | 4.49415 | 147 ft | 21 kts | 194° |
| 2026-05-07 23:10 | 50.89877 | 4.49356 | 148 ft | 21 kts | 197° |
| 2026-05-07 23:11 | 50.89737 | 4.49296 | 148 ft | 21 kts | 194° |
| 2026-05-07 23:11 | 50.89597 | 4.49226 | 149 ft | 21 kts | 205° |
| 2026-05-07 23:11 | 50.89460 | 4.49144 | 147 ft | 20 kts | 194° |
| 2026-05-07 23:11 | 50.89355 | 4.49088 | 146 ft | 15 kts | 213° |
| 2026-05-07 23:12 | 50.89302 | 4.48941 | 146 ft | 17 kts | 250° |
| 2026-05-07 23:12 | 50.89264 | 4.48764 | 146 ft | 18 kts | 250° |
| 2026-05-07 23:12 | 50.89213 | 4.48538 | 145 ft | 24 kts | 250° |
| 2026-05-07 23:12 | 50.89155 | 4.48287 | 144 ft | 24 kts | 249° |
| 2026-05-07 23:13 | 50.89097 | 4.48039 | 140 ft | 20 kts | 251° |
| 2026-05-07 23:13 | 50.89077 | 4.47957 | 139 ft | 6 kts | 239° |
| 2026-05-07 23:13 | 50.89037 | 4.47915 | 137 ft | 9 kts | 197° |
| 2026-05-07 23:13 | 50.88940 | 4.47979 | 123 ft | 17 kts | 116° |
| 2026-05-07 23:14 | 50.88928 | 4.48103 | 126 ft | 17 kts | 89° |
| 2026-05-07 23:14 | 50.88963 | 4.48296 | 131 ft | 28 kts | 69° |
| 2026-05-07 23:14 | 50.89101 | 4.48891 | 145 ft | 94 kts | 70° |
| 2026-05-07 23:14 | 50.89406 | 4.50208 | 152 ft | 158 kts | 70° |
| 2026-05-07 23:15 | 50.89812 | 4.51973 | 592 ft | 169 kts | 70° |
| 2026-05-07 23:15 | 50.90274 | 4.53671 | 1324 ft | 168 kts | 60° |
| 2026-05-07 23:15 | 50.90870 | 4.55295 | 1986 ft | 174 kts | 63° |
| 2026-05-07 23:15 | 50.91443 | 4.57007 | 2658 ft | 177 kts | 64° |
| 2026-05-07 23:16 | 50.92006 | 4.58758 | 3379 ft | 180 kts | 65° |
| 2026-05-07 23:16 | 50.92589 | 4.60615 | 3812 ft | 200 kts | 65° |
| 2026-05-07 23:16 | 50.93261 | 4.62725 | 4070 ft | 229 kts | 65° |
| 2026-05-07 23:16 | 50.93951 | 4.65146 | 4434 ft | 251 kts | 72° |
| 2026-05-07 23:17 | 50.94589 | 4.67769 | 5067 ft | 262 kts | 59° |
| 2026-05-07 23:17 | 50.95827 | 4.69935 | 5790 ft | 270 kts | 42° |
| 2026-05-07 23:17 | 50.97250 | 4.71940 | 6622 ft | 276 kts | 42° |
| 2026-05-07 23:17 | 50.98548 | 4.74170 | 7414 ft | 278 kts | 60° |
| 2026-05-07 23:18 | 50.99147 | 4.77078 | 8223 ft | 281 kts | 87° |
| 2026-05-07 23:18 | 50.98851 | 4.80123 | 9123 ft | 282 kts | 114° |
| 2026-05-07 23:18 | 50.97731 | 4.82666 | 9989 ft | 284 kts | 140° |
| 2026-05-07 23:18 | 50.96130 | 4.84449 | 10605 ft | 292 kts | 149° |
| 2026-05-07 23:19 | 50.94267 | 4.86040 | 10795 ft | 315 kts | 159° |
| 2026-05-07 23:19 | 50.92144 | 4.87263 | 10970 ft | 336 kts | 158° |
| 2026-05-07 23:19 | 50.89976 | 4.88971 | 11148 ft | 357 kts | 153° |
| 2026-05-07 23:19 | 50.87586 | 4.90167 | 11414 ft | 369 kts | 177° |
| 2026-05-07 23:20 | 50.85040 | 4.89593 | 12137 ft | 368 kts | 196° |
| 2026-05-07 23:20 | 50.82520 | 4.88832 | 12567 ft | 377 kts | 182° |
| 2026-05-07 23:20 | 50.79871 | 4.89031 | 13368 ft | 383 kts | 175° |
| 2026-05-07 23:20 | 50.77219 | 4.89554 | 14275 ft | 385 kts | 174° |
| 2026-05-07 23:21 | 50.74545 | 4.90070 | 15072 ft | 389 kts | 175° |
| 2026-05-07 23:21 | 50.71835 | 4.90530 | 15833 ft | 393 kts | 175° |
| 2026-05-07 23:21 | 50.69163 | 4.91418 | 16349 ft | 400 kts | 159° |
| 2026-05-07 23:21 | 50.66808 | 4.93826 | 16998 ft | 410 kts | 137° |
| 2026-05-07 23:22 | 50.65042 | 4.97372 | 17799 ft | 416 kts | 120° |
| 2026-05-07 23:22 | 50.63983 | 5.01556 | 18460 ft | 419 kts | 108° |
| 2026-05-07 23:22 | 50.63127 | 5.05987 | 18993 ft | 426 kts | 108° |
| 2026-05-07 23:22 | 50.62259 | 5.10485 | 19627 ft | 431 kts | 108° |
| 2026-05-07 23:23 | 50.61365 | 5.15003 | 20323 ft | 434 kts | 108° |
| 2026-05-07 23:23 | 50.60437 | 5.19554 | 21002 ft | 438 kts | 109° |
| 2026-05-07 23:23 | 50.59488 | 5.24132 | 21629 ft | 443 kts | 109° |
| 2026-05-07 23:23 | 50.58384 | 5.28634 | 22095 ft | 444 kts | 120° |
| 2026-05-07 23:24 | 50.56437 | 5.32397 | 22545 ft | 443 kts | 140° |
| 2026-05-07 23:24 | 50.54078 | 5.35557 | 22965 ft | 450 kts | 140° |
| 2026-05-07 23:24 | 50.51726 | 5.38852 | 23557 ft | 455 kts | 139° |
| 2026-05-07 23:24 | 50.49397 | 5.42227 | 24159 ft | 457 kts | 139° |
| 2026-05-07 23:25 | 50.47068 | 5.45649 | 24768 ft | 459 kts | 139° |
| 2026-05-07 23:25 | 50.44728 | 5.49095 | 25332 ft | 462 kts | 139° |
| 2026-05-07 23:25 | 50.42374 | 5.52554 | 25864 ft | 466 kts | 139° |
| 2026-05-07 23:25 | 50.40028 | 5.55990 | 26392 ft | 470 kts | 139° |
| 2026-05-07 23:26 | 50.37625 | 5.59498 | 26905 ft | 474 kts | 139° |
| 2026-05-07 23:26 | 50.35195 | 5.63037 | 27445 ft | 478 kts | 139° |
| 2026-05-07 23:26 | 50.32753 | 5.66589 | 27991 ft | 481 kts | 139° |
| 2026-05-07 23:26 | 50.30291 | 5.70166 | 28513 ft | 484 kts | 139° |
| 2026-05-07 23:27 | 50.25587 | 5.77748 | 29312 ft | 495 kts | 124° |
| 2026-05-07 23:27 | 50.24158 | 5.82681 | 29679 ft | 501 kts | 106° |
| 2026-05-07 23:27 | 50.23385 | 5.87986 | 30118 ft | 502 kts | 103° |
| 2026-05-07 23:28 | 50.22593 | 5.93300 | 30598 ft | 502 kts | 105° |
| 2026-05-07 23:28 | 50.21736 | 5.98577 | 31165 ft | 500 kts | 106° |
| 2026-05-07 23:28 | 50.20845 | 6.03810 | 31725 ft | 499 kts | 106° |
| 2026-05-07 23:28 | 50.19944 | 6.09042 | 32246 ft | 498 kts | 106° |
| 2026-05-07 23:29 | 50.19145 | 6.14297 | 32743 ft | 499 kts | 101° |
| 2026-05-07 23:29 | 50.18710 | 6.19675 | 33235 ft | 499 kts | 95° |
| 2026-05-07 23:29 | 50.18583 | 6.25086 | 33741 ft | 499 kts | 90° |
| 2026-05-07 23:29 | 50.18791 | 6.30479 | 34204 ft | 499 kts | 84° |
| 2026-05-07 23:30 | 50.19161 | 6.35862 | 34572 ft | 499 kts | 84° |
| 2026-05-07 23:30 | 50.19544 | 6.41266 | 34903 ft | 500 kts | 84° |
| 2026-05-07 23:30 | 50.19913 | 6.46682 | 35037 ft | 505 kts | 84° |
| 2026-05-07 23:30 | 50.20259 | 6.52082 | 35087 ft | 506 kts | 85° |
| 2026-05-07 23:31 | 50.20921 | 6.62958 | 35070 ft | 500 kts | 85° |
| 2026-05-07 23:31 | 50.21421 | 6.73747 | 35086 ft | 498 kts | 88° |
| 2026-05-07 23:32 | 50.21734 | 6.84540 | 35078 ft | 498 kts | 88° |
| 2026-05-07 23:32 | 50.22054 | 6.95355 | 35077 ft | 499 kts | 88° |
| 2026-05-07 23:33 | 50.22397 | 7.06193 | 35079 ft | 500 kts | 87° |
| 2026-05-07 23:33 | 50.22740 | 7.17038 | 35076 ft | 500 kts | 88° |
| 2026-05-07 23:34 | 50.23068 | 7.27820 | 35080 ft | 501 kts | 88° |
| 2026-05-07 23:34 | 50.23387 | 7.38688 | 35083 ft | 501 kts | 88° |
| 2026-05-07 23:35 | 50.23698 | 7.49570 | 35092 ft | 501 kts | 88° |
| 2026-05-07 23:35 | 50.24483 | 7.60396 | 35105 ft | 501 kts | 77° |
| 2026-05-07 23:36 | 50.26480 | 7.70809 | 35110 ft | 501 kts | 68° |
| 2026-05-07 23:36 | 50.29095 | 7.80904 | 35112 ft | 501 kts | 67° |
| 2026-05-07 23:37 | 50.31709 | 7.90957 | 35112 ft | 501 kts | 67° |
| 2026-05-07 23:37 | 50.34292 | 8.01088 | 35121 ft | 501 kts | 68° |
| 2026-05-07 23:38 | 50.36849 | 8.11250 | 35134 ft | 501 kts | 68° |
| 2026-05-07 23:38 | 50.39397 | 8.21442 | 35123 ft | 501 kts | 68° |
| 2026-05-07 23:39 | 50.41931 | 8.31615 | 35128 ft | 501 kts | 68° |
| 2026-05-07 23:39 | 50.44455 | 8.41785 | 35125 ft | 500 kts | 68° |
| 2026-05-07 23:40 | 50.46970 | 8.51967 | 35128 ft | 500 kts | 68° |
| 2026-05-07 23:40 | 50.49476 | 8.62156 | 35122 ft | 500 kts | 68° |
| 2026-05-07 23:41 | 50.51973 | 8.72358 | 35130 ft | 500 kts | 68° |
| 2026-05-07 23:41 | 50.54441 | 8.82491 | 35141 ft | 500 kts | 69° |
| 2026-05-07 23:42 | 50.56919 | 8.92710 | 35129 ft | 499 kts | 69° |
| 2026-05-07 23:42 | 50.59384 | 9.02924 | 35124 ft | 499 kts | 69° |
| 2026-05-07 23:43 | 50.61843 | 9.13159 | 35125 ft | 499 kts | 69° |
| 2026-05-07 23:43 | 50.64274 | 9.23328 | 35129 ft | 499 kts | 69° |
| 2026-05-07 23:44 | 50.66710 | 9.33564 | 35125 ft | 499 kts | 69° |
| 2026-05-07 23:44 | 50.69135 | 9.43803 | 35125 ft | 499 kts | 69° |
| 2026-05-07 23:45 | 50.71560 | 9.54049 | 35125 ft | 498 kts | 68° |
| 2026-05-07 23:45 | 50.74665 | 9.63803 | 35060 ft | 497 kts | 57° |
| 2026-05-07 23:46 | 50.76617 | 9.68321 | 34500 ft | 500 kts | 53° |
| 2026-05-07 23:46 | 50.78661 | 9.72747 | 33837 ft | 497 kts | 52° |
| 2026-05-07 23:46 | 50.80713 | 9.77128 | 33114 ft | 493 kts | 52° |
| 2026-05-07 23:46 | 50.82738 | 9.81473 | 32424 ft | 489 kts | 52° |
| 2026-05-07 23:47 | 50.84738 | 9.85810 | 31739 ft | 485 kts | 53° |
| 2026-05-07 23:47 | 50.86687 | 9.90079 | 31260 ft | 483 kts | 53° |
| 2026-05-07 23:47 | 50.88631 | 9.94373 | 30806 ft | 476 kts | 53° |
| 2026-05-07 23:47 | 50.90555 | 9.98636 | 30160 ft | 473 kts | 53° |
| 2026-05-07 23:48 | 50.92457 | 10.02860 | 29441 ft | 469 kts | 53° |
| 2026-05-07 23:48 | 50.94345 | 10.07058 | 28743 ft | 466 kts | 53° |
| 2026-05-07 23:48 | 50.96217 | 10.11224 | 28062 ft | 462 kts | 53° |
| 2026-05-07 23:48 | 50.98072 | 10.15358 | 27411 ft | 458 kts | 53° |
| 2026-05-07 23:49 | 50.99914 | 10.19468 | 26775 ft | 455 kts | 53° |
| 2026-05-07 23:49 | 51.01737 | 10.23542 | 26150 ft | 451 kts | 53° |
| 2026-05-07 23:49 | 51.03555 | 10.27612 | 25560 ft | 448 kts | 53° |
| 2026-05-07 23:49 | 51.05451 | 10.31475 | 24961 ft | 442 kts | 45° |
| 2026-05-07 23:50 | 51.07756 | 10.34654 | 24405 ft | 437 kts | 34° |
| 2026-05-07 23:50 | 51.10349 | 10.37133 | 23855 ft | 432 kts | 24° |
| 2026-05-07 23:50 | 51.13133 | 10.38870 | 23260 ft | 428 kts | 18° |
| 2026-05-07 23:50 | 51.15932 | 10.40434 | 22639 ft | 425 kts | 18° |
| 2026-05-07 23:51 | 51.18638 | 10.41995 | 22053 ft | 422 kts | 19° |
| 2026-05-07 23:51 | 51.19394 | 10.42441 | 21884 ft | 421 kts | 19° |
| 2026-05-07 23:51 | 51.22129 | 10.44075 | 21306 ft | 419 kts | 19° |
| 2026-05-07 23:52 | 51.24761 | 10.45816 | 20738 ft | 412 kts | 28° |
| 2026-05-07 23:52 | 51.27008 | 10.48615 | 20163 ft | 411 kts | 47° |
| 2026-05-07 23:52 | 51.28625 | 10.52359 | 19639 ft | 409 kts | 64° |
| 2026-05-07 23:52 | 51.29654 | 10.56537 | 19119 ft | 402 kts | 70° |
| 2026-05-07 23:53 | 51.30608 | 10.60747 | 18615 ft | 400 kts | 70° |
| 2026-05-07 23:53 | 51.31555 | 10.64900 | 18061 ft | 397 kts | 69° |
| 2026-05-07 23:53 | 51.32505 | 10.69035 | 17505 ft | 394 kts | 69° |
| 2026-05-07 23:53 | 51.33456 | 10.73141 | 16947 ft | 392 kts | 69° |
| 2026-05-07 23:54 | 51.34404 | 10.77210 | 16408 ft | 389 kts | 69° |
| 2026-05-07 23:54 | 51.35348 | 10.81252 | 15870 ft | 386 kts | 69° |
| 2026-05-07 23:54 | 51.36274 | 10.85210 | 15370 ft | 383 kts | 69° |
| 2026-05-07 23:54 | 51.37204 | 10.89191 | 14871 ft | 380 kts | 69° |
| 2026-05-07 23:55 | 51.38123 | 10.93129 | 14388 ft | 377 kts | 69° |
| 2026-05-07 23:55 | 51.39035 | 10.97043 | 13875 ft | 374 kts | 69° |
| 2026-05-07 23:55 | 51.39800 | 11.01012 | 13289 ft | 372 kts | 77° |
| 2026-05-07 23:55 | 51.40143 | 11.04992 | 12683 ft | 349 kts | 86° |
| 2026-05-07 23:56 | 51.40143 | 11.08787 | 12179 ft | 337 kts | 93° |
| 2026-05-07 23:56 | 51.40025 | 11.12538 | 11685 ft | 336 kts | 92° |
| 2026-05-07 23:56 | 51.39928 | 11.16270 | 11198 ft | 335 kts | 91° |
| 2026-05-07 23:56 | 51.39837 | 11.19998 | 10732 ft | 334 kts | 91° |
| 2026-05-07 23:57 | 51.39747 | 11.23656 | 10282 ft | 320 kts | 91° |
| 2026-05-07 23:57 | 51.39660 | 11.27088 | 9837 ft | 297 kts | 91° |
| 2026-05-07 23:57 | 51.39580 | 11.30291 | 9424 ft | 288 kts | 91° |
| 2026-05-07 23:57 | 51.39499 | 11.33488 | 9027 ft | 286 kts | 91° |
| 2026-05-07 23:58 | 51.39417 | 11.36668 | 8631 ft | 284 kts | 91° |
| 2026-05-07 23:58 | 51.39336 | 11.39817 | 8246 ft | 282 kts | 91° |
| 2026-05-07 23:58 | 51.39254 | 11.42956 | 7866 ft | 280 kts | 91° |
| 2026-05-07 23:58 | 51.39172 | 11.46050 | 7503 ft | 278 kts | 91° |
| 2026-05-07 23:59 | 51.39090 | 11.49130 | 7179 ft | 276 kts | 92° |
| 2026-05-07 23:59 | 51.39006 | 11.52210 | 7090 ft | 279 kts | 92° |
| 2026-05-07 23:59 | 51.38921 | 11.55372 | 7091 ft | 287 kts | 92° |
| 2026-05-07 23:59 | 51.38834 | 11.58567 | 6941 ft | 286 kts | 91° |
| 2026-05-08 00:00 | 51.38746 | 11.61689 | 6835 ft | 271 kts | 91° |
| 2026-05-08 00:00 | 51.38662 | 11.64656 | 6246 ft | 270 kts | 92° |
| 2026-05-08 00:00 | 51.38580 | 11.67642 | 5844 ft | 268 kts | 91° |
| 2026-05-08 00:00 | 51.38688 | 11.70577 | 5566 ft | 261 kts | 83° |
| 2026-05-08 00:01 | 51.38905 | 11.73479 | 5106 ft | 264 kts | 83° |
| 2026-05-08 00:01 | 51.39082 | 11.76398 | 4764 ft | 261 kts | 84° |
| 2026-05-08 00:01 | 51.39226 | 11.79269 | 4461 ft | 257 kts | 85° |
| 2026-05-08 00:01 | 51.39359 | 11.82085 | 4293 ft | 248 kts | 85° |
| 2026-05-08 00:02 | 51.39484 | 11.84774 | 4164 ft | 236 kts | 85° |
| 2026-05-08 00:02 | 51.39604 | 11.87330 | 4043 ft | 224 kts | 85° |
| 2026-05-08 00:02 | 51.39717 | 11.89743 | 3949 ft | 210 kts | 85° |
| 2026-05-08 00:02 | 51.39823 | 11.92007 | 3766 ft | 199 kts | 85° |
| 2026-05-08 00:03 | 51.39925 | 11.94169 | 3568 ft | 188 kts | 85° |
| 2026-05-08 00:03 | 51.40019 | 11.96188 | 3308 ft | 180 kts | 85° |
| 2026-05-08 00:03 | 51.40111 | 11.98140 | 3112 ft | 170 kts | 85° |
| 2026-05-08 00:03 | 51.40200 | 12.00028 | 3025 ft | 173 kts | 85° |
| 2026-05-08 00:04 | 51.40291 | 12.01973 | 2769 ft | 174 kts | 85° |
| 2026-05-08 00:04 | 51.40380 | 12.03868 | 2534 ft | 166 kts | 85° |
| 2026-05-08 00:04 | 51.40466 | 12.05693 | 2314 ft | 165 kts | 85° |
| 2026-05-08 00:04 | 51.40554 | 12.07562 | 2103 ft | 170 kts | 85° |
| 2026-05-08 00:05 | 51.40638 | 12.09376 | 1844 ft | 156 kts | 85° |
| 2026-05-08 00:05 | 51.40690 | 12.10486 | 1689 ft | 147 kts | 85° |
| 2026-05-08 00:05 | 51.40763 | 12.12051 | 1446 ft | 132 kts | 85° |
| 2026-05-08 00:05 | 51.40838 | 12.13469 | 1339 ft | 135 kts | 83° |
| 2026-05-08 00:06 | 51.40936 | 12.15008 | 1230 ft | 139 kts | 84° |
| 2026-05-08 00:06 | 51.40996 | 12.16550 | 976 ft | 138 kts | 85° |
| 2026-05-08 00:06 | 51.41053 | 12.18121 | 789 ft | 141 kts | 85° |
| 2026-05-08 00:06 | 51.41128 | 12.19698 | 588 ft | 143 kts | 84° |
| 2026-05-08 00:07 | 51.41195 | 12.21207 | 462 ft | 123 kts | 84° |
| 2026-05-08 00:07 | 51.41252 | 12.22444 | 462 ft | 102 kts | 86° |
| 2026-05-08 00:07 | 51.41299 | 12.23429 | 468 ft | 63 kts | 86° |
| 2026-05-08 00:07 | 51.41301 | 12.23921 | 471 ft | 41 kts | 101° |
| 2026-05-08 00:08 | 51.41217 | 12.24249 | 468 ft | 17 kts | 116° |
| 2026-05-08 00:08 | 51.41190 | 12.24341 | 469 ft | 7 kts | 113° |
| 2026-05-08 00:08 | 51.41168 | 12.24386 | 466 ft | 6 kts | 151° |
| 2026-05-08 00:08 | 51.41106 | 12.24379 | 470 ft | 10 kts | 211° |
| 2026-05-08 00:09 | 51.41082 | 12.24299 | 469 ft | 6 kts | 259° |
| 2026-05-08 00:09 | 51.41068 | 12.24235 | 468 ft | 6 kts | 229° |
| 2026-05-08 00:09 | 51.41017 | 12.24218 | 470 ft | 9 kts | 176° |
| 2026-05-08 00:09 | 51.40953 | 12.24226 | 470 ft | 10 kts | 175° |
| 2026-05-08 00:10 | 51.40888 | 12.24233 | 468 ft | 4 kts | 176° |
| 2026-05-08 00:10 | 51.40856 | 12.24236 | 468 ft | 6 kts | 175° |
| 2026-05-08 00:10 | 51.40833 | 12.24270 | 468 ft | 6 kts | 100° |
| 2026-05-08 00:10 | 51.40832 | 12.24314 | 468 ft | 3 kts | 86° |
| 2026-05-08 00:11 | 51.40834 | 12.24352 | 469 ft | 0 kts | 86° |